createdAt,value
2023-11-18T00:00:27.102Z,11.55
2023-11-18T00:02:53.631Z,11.63
2023-11-18T00:05:20.175Z,11.88
2023-11-18T00:07:46.645Z,11.50
2023-11-18T00:10:13.181Z,12.35
2023-11-18T00:12:42.919Z,10.57
2023-11-18T00:15:11.662Z,12.10
2023-11-18T00:17:38.772Z,13.35
2023-11-18T00:20:10.253Z,10.73
2023-11-18T00:22:36.862Z,13.00
2023-11-18T00:25:06.392Z,10.73
2023-11-18T00:27:32.904Z,10.70
2023-11-18T00:29:59.408Z,11.52
2023-11-18T00:32:26.169Z,10.30
2023-11-18T00:34:52.695Z,11.38
2023-11-18T00:37:19.222Z,11.65
2023-11-18T00:39:45.724Z,11.07
2023-11-18T00:42:12.233Z,11.57
2023-11-18T00:44:38.682Z,12.45
2023-11-18T00:47:05.541Z,11.18
2023-11-18T00:49:32.070Z,13.60
2023-11-18T00:51:58.537Z,10.25
2023-11-18T00:54:25.203Z,15.48
2023-11-18T00:56:51.688Z,12.45
2023-11-18T00:59:18.083Z,10.45
2023-11-18T01:01:44.696Z,11.63
2023-11-18T01:04:11.332Z,11.20
2023-11-18T01:06:37.837Z,11.95
2023-11-18T01:09:04.893Z,12.70
2023-11-18T01:11:31.322Z,11.50
2023-11-18T01:13:57.826Z,11.40
2023-11-18T01:16:25.098Z,10.52
2023-11-18T01:18:51.647Z,10.00
2023-11-18T01:21:18.473Z,11.13
2023-11-18T01:23:46.132Z,10.68
2023-11-18T01:26:13.599Z,13.68
2023-11-18T01:28:44.612Z,10.60
2023-11-18T01:31:11.784Z,11.95
2023-11-18T01:33:40.884Z,12.25
2023-11-18T01:36:09.321Z,11.60
2023-11-18T01:38:36.349Z,11.85
2023-11-18T01:41:03.981Z,11.77
2023-11-18T01:43:32.878Z,10.13
2023-11-18T01:46:02.019Z,11.25
2023-11-18T01:48:29.090Z,11.27
2023-11-18T01:50:57.078Z,11.25
2023-11-18T01:53:23.574Z,11.80
2023-11-18T01:55:50.183Z,11.32
2023-11-18T01:58:20.829Z,11.13
2023-11-18T02:00:47.726Z,12.52
2023-11-18T02:03:14.311Z,11.25
2023-11-18T02:05:40.904Z,12.02
2023-11-18T02:08:10.154Z,12.20
2023-11-18T02:10:43.919Z,11.52
2023-11-18T02:13:13.950Z,12.05
2023-11-18T02:15:41.454Z,12.88
2023-11-18T02:20:37.356Z,13.45
2023-11-18T02:23:03.994Z,12.05
2023-11-18T02:25:34.146Z,11.88
2023-11-18T02:28:00.770Z,12.07
2023-11-18T02:30:28.934Z,12.50
2023-11-18T02:32:55.445Z,11.88
2023-11-18T02:35:26.874Z,12.45
2023-11-18T02:37:55.902Z,14.23
2023-11-18T02:40:46.337Z,11.75
2023-11-18T02:43:12.889Z,11.63
2023-11-18T02:45:39.506Z,12.80
2023-11-18T02:48:07.687Z,11.27
2023-11-18T02:50:36.958Z,12.85
2023-11-18T02:53:03.991Z,12.93
2023-11-18T02:55:30.525Z,13.15
2023-11-18T02:57:58.034Z,13.50
2023-11-18T03:02:52.638Z,12.77
2023-11-18T03:05:19.933Z,11.48
2023-11-18T03:07:50.719Z,13.00
2023-11-18T03:10:23.989Z,13.60
2023-11-18T03:12:51.162Z,13.82
2023-11-18T03:15:20.674Z,12.70
2023-11-18T03:17:49.324Z,13.80
2023-11-18T03:20:17.935Z,13.13
2023-11-18T03:22:47.760Z,13.07
2023-11-18T03:25:14.696Z,12.20
2023-11-18T03:27:41.298Z,12.93
2023-11-18T03:30:09.286Z,12.13
2023-11-18T03:32:37.911Z,12.30
2023-11-18T03:35:10.068Z,12.68
2023-11-18T03:37:39.844Z,12.68
2023-11-18T03:40:07.232Z,12.68
2023-11-18T03:42:33.661Z,12.77
2023-11-18T03:45:00.236Z,12.45
2023-11-18T03:47:26.744Z,12.02
2023-11-18T03:49:55.290Z,13.10
2023-11-18T03:52:21.818Z,11.57
2023-11-18T03:54:48.232Z,12.57
2023-11-18T03:57:15.169Z,11.02
2023-11-18T03:59:44.553Z,12.95
2023-11-18T04:02:12.366Z,12.57
2023-11-18T04:04:39.248Z,14.18
2023-11-18T04:07:07.555Z,11.80
2023-11-18T04:09:34.292Z,13.10
2023-11-18T04:12:00.957Z,12.25
2023-11-18T04:14:27.390Z,13.30
2023-11-18T04:16:54.626Z,12.60
2023-11-18T04:19:21.134Z,11.05
2023-11-18T04:21:51.380Z,12.13
2023-11-18T04:24:17.832Z,11.40
2023-11-18T04:26:44.286Z,12.35
2023-11-18T04:29:10.801Z,11.88
2023-11-18T04:31:38.527Z,12.25
2023-11-18T04:34:07.774Z,11.23
2023-11-18T04:36:34.219Z,11.05
2023-11-18T04:39:00.715Z,11.77
2023-11-18T04:41:27.235Z,12.43
2023-11-18T04:43:54.532Z,11.25
2023-11-18T04:46:21.058Z,10.90
2023-11-18T04:48:48.937Z,10.90
2023-11-18T04:51:15.463Z,10.20
2023-11-18T04:53:41.960Z,11.57
2023-11-18T04:56:11.502Z,13.10
2023-11-18T04:58:41.431Z,10.93
2023-11-18T05:01:08.099Z,12.73
2023-11-18T05:03:34.678Z,13.65
2023-11-18T05:06:01.369Z,9.65
2023-11-18T05:08:27.926Z,12.38
2023-11-18T05:10:55.512Z,10.77
2023-11-18T05:15:50.947Z,11.55
2023-11-18T05:18:17.620Z,10.52
2023-11-18T05:20:44.900Z,12.70
2023-11-18T05:23:11.853Z,11.00
2023-11-18T05:25:40.340Z,10.70
2023-11-18T05:28:09.573Z,11.32
2023-11-18T05:30:36.511Z,10.77
2023-11-18T05:33:05.108Z,11.43
2023-11-18T05:35:32.745Z,11.48
2023-11-18T05:40:26.580Z,9.65
2023-11-18T05:42:53.760Z,10.23
2023-11-18T05:45:29.425Z,11.68
2023-11-18T05:47:56.649Z,11.90
2023-11-18T05:50:23.199Z,10.68
2023-11-18T05:52:49.676Z,10.68
2023-11-18T05:55:16.082Z,11.23
2023-11-18T05:57:46.693Z,10.95
2023-11-18T06:00:20.991Z,11.02
2023-11-18T06:02:52.808Z,10.10
2023-11-18T06:05:19.481Z,11.60
2023-11-18T06:07:45.959Z,9.88
2023-11-18T06:10:13.360Z,10.10
2023-11-18T06:12:42.095Z,10.93
2023-11-18T06:15:10.300Z,12.32
2023-11-18T06:17:38.096Z,11.75
2023-11-18T06:20:07.563Z,10.50
2023-11-18T06:22:34.268Z,11.07
2023-11-18T06:25:00.893Z,9.57
2023-11-18T06:27:28.381Z,11.13
2023-11-18T06:32:22.796Z,9.52
2023-11-18T06:34:50.444Z,10.52
2023-11-18T06:37:17.988Z,10.48
2023-11-18T06:39:46.686Z,11.15
2023-11-18T06:42:13.271Z,10.82
2023-11-18T06:44:39.766Z,8.95
2023-11-18T06:47:07.672Z,10.55
2023-11-18T06:49:38.028Z,9.57
2023-11-18T06:52:04.815Z,10.38
2023-11-18T06:54:34.312Z,10.45
2023-11-18T06:57:00.976Z,11.48
2023-11-18T06:59:27.595Z,11.00
2023-11-18T07:01:54.630Z,10.45
2023-11-18T07:04:21.218Z,12.52
2023-11-18T07:06:47.702Z,9.02
2023-11-18T07:11:47.760Z,10.10
2023-11-18T07:14:16.045Z,8.80
2023-11-18T07:16:43.309Z,8.60
2023-11-18T07:19:11.306Z,10.20
2023-11-18T07:21:37.933Z,9.57
2023-11-18T07:24:04.597Z,9.98
2023-11-18T07:26:31.024Z,9.13
2023-11-18T07:28:57.601Z,8.23
2023-11-18T07:31:24.159Z,8.30
2023-11-18T07:33:51.423Z,7.85
2023-11-18T07:36:18.337Z,9.10
2023-11-18T07:38:45.458Z,11.70
2023-11-18T07:41:24.494Z,8.18
2023-11-18T07:43:55.818Z,7.38
2023-11-18T07:46:23.422Z,8.50
2023-11-18T07:48:50.757Z,11.45
2023-11-18T07:53:43.561Z,7.97
2023-11-18T07:56:13.389Z,7.38
2023-11-18T07:58:39.968Z,8.05
2023-11-18T08:01:08.431Z,7.00
2023-11-18T08:03:35.297Z,7.53
2023-11-18T08:06:03.476Z,7.85
2023-11-18T08:08:30.001Z,8.07
2023-11-18T08:10:56.718Z,9.30
2023-11-18T08:13:23.448Z,9.02
2023-11-18T08:15:50.163Z,11.88
2023-11-18T08:18:16.795Z,9.68
2023-11-18T08:20:44.609Z,7.75
2023-11-18T08:23:11.182Z,7.63
2023-11-18T08:25:37.940Z,9.40
2023-11-18T08:28:05.889Z,9.70
2023-11-18T08:30:35.079Z,7.80
2023-11-18T08:33:05.446Z,7.22
2023-11-18T08:35:32.946Z,8.00
2023-11-18T08:38:00.522Z,9.02
2023-11-18T08:40:27.028Z,8.45
2023-11-18T08:42:56.572Z,11.80
2023-11-18T08:45:34.055Z,9.35
2023-11-18T08:48:08.238Z,8.98
2023-11-18T08:50:35.815Z,8.13
2023-11-18T08:53:05.372Z,11.32
2023-11-18T08:55:35.545Z,14.05
2023-11-18T08:58:04.910Z,13.00
2023-11-18T09:00:47.310Z,12.45
2023-11-18T09:03:26.557Z,10.02
2023-11-18T09:06:00.237Z,10.90
2023-11-18T09:08:33.309Z,9.85
2023-11-18T09:11:00.934Z,10.52
2023-11-18T09:13:30.756Z,9.70
2023-11-18T09:15:57.769Z,10.88
2023-11-18T09:18:26.217Z,8.82
2023-11-18T09:20:53.657Z,9.30
2023-11-18T09:23:20.572Z,8.93
2023-11-18T09:25:47.975Z,9.65
2023-11-18T09:28:15.974Z,9.95
2023-11-18T09:30:58.494Z,8.55
2023-11-18T09:33:35.387Z,8.57
2023-11-18T09:36:03.178Z,7.65
2023-11-18T09:38:30.419Z,7.22
2023-11-18T09:43:23.256Z,8.00
2023-11-18T09:45:56.088Z,8.02
2023-11-18T09:48:26.444Z,8.32
2023-11-18T09:50:53.676Z,8.15
2023-11-18T09:56:01.127Z,7.90
2023-11-18T09:58:34.959Z,7.63
2023-11-18T10:01:04.150Z,7.25
2023-11-18T10:03:30.791Z,8.32
2023-11-18T10:05:57.830Z,9.57
2023-11-18T10:08:27.230Z,10.43
2023-11-18T10:11:05.910Z,8.98
2023-11-18T10:13:35.359Z,6.05
2023-11-18T10:16:02.679Z,7.95
2023-11-18T10:18:29.738Z,8.23
2023-11-18T10:20:56.336Z,7.90
2023-11-18T10:23:24.069Z,8.13
2023-11-18T10:25:58.200Z,6.78
2023-11-18T10:28:40.071Z,8.38
2023-11-18T10:31:07.487Z,7.53
2023-11-18T10:33:38.550Z,7.35
2023-11-18T10:36:06.208Z,6.90
2023-11-18T10:38:37.569Z,7.03
2023-11-18T10:41:04.140Z,7.00
2023-11-18T10:43:30.768Z,6.53
2023-11-18T10:46:13.202Z,6.95
2023-11-18T10:48:43.526Z,7.20
2023-11-18T10:51:13.568Z,7.22
2023-11-18T10:53:41.155Z,6.50
2023-11-18T10:56:17.248Z,6.45
2023-11-18T10:58:43.750Z,6.28
2023-11-18T11:01:12.776Z,7.57
2023-11-18T11:03:57.622Z,5.97
2023-11-18T11:06:27.354Z,5.70
2023-11-18T11:08:54.015Z,6.70
2023-11-18T11:11:22.939Z,7.13
2023-11-18T11:14:01.728Z,5.38
2023-11-18T11:16:38.863Z,5.45
2023-11-18T11:19:09.632Z,5.53
2023-11-18T11:21:48.488Z,6.03
2023-11-18T11:24:35.440Z,6.07
2023-11-18T11:27:19.260Z,5.78
2023-11-18T11:29:54.447Z,5.90
2023-11-18T11:32:39.457Z,4.95
2023-11-18T11:35:09.647Z,5.68
2023-11-18T11:37:37.504Z,4.55
2023-11-18T11:40:11.000Z,5.07
2023-11-18T11:42:40.765Z,5.45
2023-11-18T11:45:10.293Z,6.47
2023-11-18T11:47:44.415Z,4.57
2023-11-18T11:50:22.587Z,4.95
2023-11-18T11:52:54.922Z,5.43
2023-11-18T11:55:36.253Z,5.30
2023-11-18T11:58:02.926Z,6.03
2023-11-18T12:00:35.453Z,5.20
2023-11-18T12:03:05.361Z,4.55
2023-11-18T12:05:34.799Z,5.63
2023-11-18T12:08:01.520Z,3.63
2023-11-18T12:10:29.536Z,4.72
2023-11-18T12:13:10.216Z,4.55
2023-11-18T12:15:48.980Z,6.95
2023-11-18T12:18:18.599Z,5.82
2023-11-18T12:20:59.004Z,6.07
2023-11-18T12:23:26.570Z,5.75
2023-11-18T12:25:58.003Z,5.32
2023-11-18T12:28:28.722Z,5.22
2023-11-18T12:30:58.675Z,3.50
2023-11-18T12:33:27.612Z,4.85
2023-11-18T12:36:12.824Z,3.88
2023-11-18T12:38:59.069Z,4.15
2023-11-18T12:41:28.685Z,5.20
2023-11-18T12:43:55.202Z,3.17
2023-11-18T12:46:47.306Z,5.13
2023-11-18T12:49:18.251Z,3.13
2023-11-18T12:51:45.570Z,4.35
2023-11-18T12:54:13.175Z,5.38
2023-11-18T12:56:40.227Z,4.55
2023-11-18T12:59:07.603Z,4.47
2023-11-18T13:01:37.516Z,6.00
2023-11-18T13:04:04.485Z,6.95
2023-11-18T13:06:31.022Z,7.10
2023-11-18T13:08:59.146Z,6.72
2023-11-18T13:11:26.125Z,6.65
2023-11-18T13:13:53.105Z,6.18
2023-11-18T13:16:19.697Z,6.50
2023-11-18T13:18:48.561Z,6.35
2023-11-18T13:21:17.097Z,6.32
2023-11-18T13:23:46.278Z,5.35
2023-11-18T13:26:13.347Z,4.82
2023-11-18T13:28:42.731Z,3.80
2023-11-18T13:31:10.695Z,5.30
2023-11-18T13:33:40.387Z,5.50
2023-11-18T13:36:07.425Z,4.85
2023-11-18T13:38:34.132Z,4.93
2023-11-18T13:41:04.513Z,4.55
2023-11-18T13:43:43.325Z,5.40
2023-11-18T13:46:16.411Z,7.10
2023-11-18T13:48:43.024Z,6.43
2023-11-18T13:51:13.817Z,4.03
2023-11-18T13:53:41.585Z,5.18
2023-11-18T13:56:11.354Z,7.63
2023-11-18T13:58:40.864Z,4.70
2023-11-18T14:01:08.678Z,4.28
2023-11-18T14:03:38.394Z,3.53
2023-11-18T14:06:11.417Z,3.28
2023-11-18T14:08:38.394Z,3.92
2023-11-18T14:11:09.918Z,7.78
2023-11-18T14:13:40.047Z,2.13
2023-11-18T14:16:10.688Z,4.85
2023-11-18T14:18:37.559Z,4.40
2023-11-18T14:21:04.279Z,3.58
2023-11-18T14:23:30.781Z,4.57
2023-11-18T14:25:57.315Z,8.13
2023-11-18T14:28:27.325Z,3.67
2023-11-18T14:30:53.793Z,3.97
2023-11-18T14:33:20.328Z,3.58
2023-11-18T14:35:47.343Z,4.60
2023-11-18T14:38:14.093Z,5.32
2023-11-18T14:40:42.696Z,4.20
2023-11-18T14:43:09.744Z,2.47
2023-11-18T14:45:36.268Z,2.55
2023-11-18T14:48:03.797Z,4.45
2023-11-18T14:50:31.131Z,3.88
2023-11-18T14:55:27.934Z,4.20
2023-11-18T14:57:54.441Z,6.65
2023-11-18T15:00:22.905Z,2.85
2023-11-18T15:02:50.081Z,5.40
2023-11-18T15:05:19.470Z,10.77
2023-11-18T15:07:46.800Z,7.18
2023-11-18T15:10:15.273Z,5.55
2023-11-18T15:12:42.140Z,4.70
2023-11-18T15:15:18.061Z,2.17
2023-11-18T15:17:48.108Z,3.58
2023-11-18T15:20:15.927Z,4.07
2023-11-18T15:25:13.058Z,3.97
2023-11-18T15:27:40.520Z,2.72
2023-11-18T15:32:33.470Z,1.88
2023-11-18T15:35:00.313Z,1.90
2023-11-18T15:37:27.342Z,1.67
2023-11-18T15:39:53.790Z,2.67
2023-11-18T15:42:20.266Z,2.72
2023-11-18T15:44:46.774Z,4.07
2023-11-18T15:47:14.883Z,5.22
2023-11-18T15:49:41.441Z,2.83
2023-11-18T15:52:10.074Z,3.50
2023-11-18T15:54:37.987Z,3.90
2023-11-18T15:57:05.001Z,2.92
2023-11-18T15:59:31.927Z,4.22
2023-11-18T16:01:58.862Z,2.97
2023-11-18T16:04:25.341Z,4.32
2023-11-18T16:06:52.250Z,3.53
2023-11-18T16:09:19.209Z,4.65
2023-11-18T16:11:45.654Z,3.90
2023-11-18T16:14:12.686Z,2.72
2023-11-18T16:16:39.594Z,2.40
2023-11-18T16:19:06.968Z,4.82
2023-11-18T16:23:59.867Z,3.05
2023-11-18T16:26:26.343Z,5.00
2023-11-18T16:28:53.049Z,2.88
2023-11-18T16:31:19.650Z,4.10
2023-11-18T16:33:46.569Z,2.67
2023-11-18T16:36:21.180Z,3.97
2023-11-18T16:38:48.291Z,3.67
2023-11-18T16:41:14.958Z,2.65
2023-11-18T16:43:41.420Z,2.30
2023-11-18T16:46:07.950Z,2.38
2023-11-18T16:48:34.474Z,4.75
2023-11-18T16:51:02.717Z,2.50
2023-11-18T16:53:29.992Z,2.97
2023-11-18T16:55:56.636Z,4.05
2023-11-18T16:58:23.088Z,1.33
2023-11-18T17:00:52.250Z,3.38
2023-11-18T17:03:19.299Z,4.90
2023-11-18T17:05:45.882Z,2.38
2023-11-18T17:08:13.603Z,5.10
2023-11-18T17:10:40.450Z,6.03
2023-11-18T17:13:09.585Z,3.63
2023-11-18T17:15:36.148Z,3.53
2023-11-18T17:18:04.014Z,4.10
2023-11-18T17:20:31.424Z,3.47
2023-11-18T17:22:58.008Z,6.45
2023-11-18T17:25:24.994Z,3.25
2023-11-18T17:27:53.831Z,4.45
2023-11-18T17:30:20.379Z,4.65
2023-11-18T17:32:47.591Z,3.50
2023-11-18T17:35:15.485Z,4.03
2023-11-18T17:37:46.147Z,2.85
2023-11-18T17:40:13.400Z,3.15
2023-11-18T17:42:40.677Z,2.97
2023-11-18T17:45:08.117Z,4.53
2023-11-18T17:50:09.947Z,3.42
2023-11-18T17:52:36.897Z,5.93
2023-11-18T17:55:04.808Z,3.63
2023-11-18T17:57:31.436Z,5.50
2023-11-18T17:59:58.726Z,3.95
2023-11-18T18:04:51.882Z,2.78
2023-11-18T18:07:18.340Z,4.60
2023-11-18T18:09:46.971Z,3.53
2023-11-18T18:12:13.947Z,2.55
2023-11-18T18:14:40.564Z,5.45
2023-11-18T18:17:07.564Z,3.75
2023-11-18T18:19:34.138Z,3.58
2023-11-18T18:22:00.684Z,3.30
2023-11-18T18:24:27.106Z,3.85
2023-11-18T18:26:53.551Z,4.30
2023-11-18T18:29:20.730Z,3.45
2023-11-18T18:31:47.446Z,2.72
2023-11-18T18:34:13.957Z,5.53
2023-11-18T18:36:40.401Z,3.80
2023-11-18T18:39:07.777Z,4.20
2023-11-18T18:44:00.880Z,4.93
2023-11-18T18:46:28.228Z,4.28
2023-11-18T18:48:54.709Z,6.63
2023-11-18T18:51:21.297Z,5.43
2023-11-18T18:53:48.894Z,4.82
2023-11-18T18:56:15.598Z,5.90
2023-11-18T18:58:42.112Z,4.72
2023-11-18T19:01:09.407Z,5.45
2023-11-18T19:06:04.169Z,4.32
2023-11-18T19:08:30.913Z,3.50
2023-11-18T19:10:57.561Z,4.20
2023-11-18T19:13:24.084Z,4.13
2023-11-18T19:15:53.873Z,3.97
2023-11-18T19:18:20.444Z,5.35
2023-11-18T19:20:47.016Z,3.78
2023-11-18T19:23:13.628Z,3.70
2023-11-18T19:25:40.169Z,4.00
2023-11-18T19:28:10.002Z,3.25
2023-11-18T19:30:36.881Z,3.78
2023-11-18T19:33:03.383Z,3.95
2023-11-18T19:35:32.672Z,3.13
2023-11-18T19:38:01.353Z,4.35
2023-11-18T19:40:28.443Z,3.35
2023-11-18T19:42:55.158Z,4.57
2023-11-18T19:45:23.049Z,6.10
2023-11-18T19:47:50.581Z,5.25
2023-11-18T19:52:53.027Z,2.95
2023-11-18T19:55:19.891Z,3.40
2023-11-18T19:57:47.827Z,3.33
2023-11-18T20:00:18.341Z,4.05
2023-11-18T20:02:45.429Z,3.70
2023-11-18T20:05:12.120Z,3.22
2023-11-18T20:07:39.865Z,5.25
2023-11-18T20:10:09.229Z,4.00
2023-11-18T20:12:36.120Z,4.35
2023-11-18T20:15:02.649Z,5.05
2023-11-18T20:17:29.216Z,4.07
2023-11-18T20:19:55.817Z,4.15
2023-11-18T20:22:22.261Z,6.15
2023-11-18T20:24:48.686Z,4.72
2023-11-18T20:27:15.261Z,3.45
2023-11-18T20:29:41.797Z,4.63
2023-11-18T20:32:09.091Z,4.43
2023-11-18T20:37:02.170Z,3.90
2023-11-18T20:39:28.952Z,4.07
2023-11-18T20:41:55.566Z,5.05
2023-11-18T20:44:22.357Z,3.47
2023-11-18T20:46:49.020Z,6.65
2023-11-18T20:49:18.410Z,4.32
2023-11-18T20:51:45.194Z,3.97
2023-11-18T20:54:11.639Z,3.80
2023-11-18T20:56:38.182Z,2.60
2023-11-18T20:59:04.930Z,3.85
2023-11-18T21:01:31.539Z,3.90
2023-11-18T21:03:58.136Z,3.60
2023-11-18T21:06:24.896Z,4.70
2023-11-18T21:08:51.644Z,3.30
2023-11-18T21:11:18.452Z,3.95
2023-11-18T21:13:45.095Z,4.45
2023-11-18T21:16:13.816Z,3.83
2023-11-18T21:18:40.330Z,3.25
2023-11-18T21:21:06.853Z,3.65
2023-11-18T21:23:33.504Z,4.78
2023-11-18T21:26:00.162Z,4.10
2023-11-18T21:28:26.747Z,3.50
2023-11-18T21:30:54.403Z,4.00
2023-11-18T21:33:22.418Z,3.30
2023-11-18T21:35:49.232Z,6.07
2023-11-18T21:38:15.907Z,4.32
2023-11-18T21:40:42.405Z,4.30
2023-11-18T21:43:09.299Z,6.40
2023-11-18T21:45:38.673Z,5.18
2023-11-18T21:48:05.791Z,4.22
2023-11-18T21:50:34.406Z,5.10
2023-11-18T21:53:02.910Z,6.45
2023-11-18T21:55:29.665Z,6.68
2023-11-18T21:57:56.142Z,4.30
2023-11-18T22:00:22.641Z,5.47
2023-11-18T22:02:49.677Z,3.83
2023-11-18T22:05:19.771Z,5.22
2023-11-18T22:07:46.809Z,4.82
2023-11-18T22:10:15.178Z,3.70
2023-11-18T22:12:41.902Z,5.30
2023-11-18T22:15:08.861Z,5.05
2023-11-18T22:17:38.945Z,7.13
2023-11-18T22:20:10.747Z,12.15
2023-11-18T22:22:37.239Z,6.38
2023-11-18T22:25:04.116Z,7.13
2023-11-18T22:27:34.865Z,4.38
2023-11-18T22:30:01.726Z,4.65
2023-11-18T22:32:28.247Z,5.68
2023-11-18T22:34:55.439Z,5.90
2023-11-18T22:37:23.396Z,4.20
2023-11-18T22:39:49.844Z,5.57
2023-11-18T22:42:16.894Z,5.65
2023-11-18T22:44:46.642Z,5.88
2023-11-18T22:47:13.428Z,7.43
2023-11-18T22:49:41.733Z,8.30
2023-11-18T22:52:08.991Z,10.05
2023-11-18T22:54:35.688Z,8.15
2023-11-18T22:57:02.396Z,7.53
2023-11-18T22:59:28.899Z,7.43
2023-11-18T23:01:55.387Z,10.77
2023-11-18T23:04:22.718Z,8.05
2023-11-18T23:06:56.006Z,6.72
2023-11-18T23:09:22.667Z,5.95
2023-11-18T23:11:49.104Z,7.63
2023-11-18T23:14:15.688Z,7.25
2023-11-18T23:16:42.266Z,9.57
2023-11-18T23:19:09.229Z,7.47
2023-11-18T23:21:36.824Z,6.95
2023-11-18T23:24:03.465Z,5.55
2023-11-18T23:26:30.744Z,5.95
2023-11-18T23:28:57.405Z,6.43
2023-11-18T23:31:27.132Z,6.88
2023-11-18T23:33:53.664Z,6.95
2023-11-18T23:36:20.159Z,6.07
2023-11-18T23:38:47.337Z,4.60
2023-11-18T23:41:14.306Z,6.82
2023-11-18T23:43:41.658Z,7.65
2023-11-18T23:48:34.949Z,5.65
2023-11-18T23:51:02.143Z,7.32
2023-11-18T23:53:28.562Z,5.95
2023-11-18T23:55:56.620Z,5.47
2023-11-18T23:58:23.307Z,6.65
